sensor_id;sensor_type;location;lat;lon;timestamp;P1;durP1;ratioP1;P2;durP2;ratioP2
43606;SDS011;29197;44.788;10.366;2022-10-31T17:24:57;23.60;;;11.05;;
43606;SDS011;29197;44.788;10.366;2022-10-31T17:27:47;19.00;;;10.30;;
43606;SDS011;29197;44.788;10.366;2022-10-31T17:30:36;25.30;;;12.45;;
43606;SDS011;29197;44.788;10.366;2022-10-31T17:33:25;22.45;;;11.32;;
43606;SDS011;29197;44.788;10.366;2022-10-31T17:36:15;22.48;;;11.85;;
43606;SDS011;29197;44.788;10.366;2022-10-31T17:39:04;25.08;;;12.85;;
43606;SDS011;29197;44.788;10.366;2022-10-31T17:41:57;25.65;;;12.80;;
43606;SDS011;29197;44.788;10.366;2022-10-31T17:44:46;19.00;;;10.50;;
43606;SDS011;29197;44.788;10.366;2022-10-31T17:47:35;23.73;;;13.15;;
43606;SDS011;29197;44.788;10.366;2022-10-31T17:50:24;24.65;;;11.50;;
43606;SDS011;29197;44.788;10.366;2022-10-31T17:53:14;23.25;;;11.80;;
43606;SDS011;29197;44.788;10.366;2022-10-31T17:56:04;25.35;;;13.05;;
43606;SDS011;29197;44.788;10.366;2022-10-31T17:58:56;43.30;;;15.27;;
43606;SDS011;29197;44.788;10.366;2022-10-31T18:01:45;28.00;;;16.60;;
43606;SDS011;29197;44.788;10.366;2022-10-31T18:04:34;34.15;;;14.50;;
43606;SDS011;29197;44.788;10.366;2022-10-31T18:07:24;27.85;;;14.05;;
43606;SDS011;29197;44.788;10.366;2022-10-31T18:10:14;24.70;;;13.02;;
43606;SDS011;29197;44.788;10.366;2022-10-31T18:13:03;27.08;;;12.73;;
43606;SDS011;29197;44.788;10.366;2022-10-31T18:15:54;21.25;;;11.23;;
43606;SDS011;29197;44.788;10.366;2022-10-31T18:18:48;22.75;;;14.93;;
43606;SDS011;29197;44.788;10.366;2022-10-31T18:21:38;26.40;;;13.40;;
43606;SDS011;29197;44.788;10.366;2022-10-31T18:24:27;28.40;;;12.48;;
43606;SDS011;29197;44.788;10.366;2022-10-31T18:27:16;26.35;;;13.23;;
43606;SDS011;29197;44.788;10.366;2022-10-31T18:30:05;21.38;;;12.52;;
43606;SDS011;29197;44.788;10.366;2022-10-31T18:32:57;21.75;;;13.10;;
43606;SDS011;29197;44.788;10.366;2022-10-31T18:35:47;25.33;;;13.10;;
43606;SDS011;29197;44.788;10.366;2022-10-31T18:38:36;28.70;;;14.35;;
43606;SDS011;29197;44.788;10.366;2022-10-31T18:41:27;24.50;;;12.27;;
43606;SDS011;29197;44.788;10.366;2022-10-31T18:44:16;21.92;;;13.52;;
43606;SDS011;29197;44.788;10.366;2022-10-31T18:47:06;29.15;;;12.18;;
43606;SDS011;29197;44.788;10.366;2022-10-31T18:49:56;27.98;;;13.20;;
43606;SDS011;29197;44.788;10.366;2022-10-31T18:52:46;28.52;;;13.65;;
43606;SDS011;29197;44.788;10.366;2022-10-31T18:55:37;24.98;;;12.93;;
43606;SDS011;29197;44.788;10.366;2022-10-31T18:58:35;33.30;;;15.45;;
43606;SDS011;29197;44.788;10.366;2022-10-31T19:01:25;30.35;;;14.70;;
43606;SDS011;29197;44.788;10.366;2022-10-31T19:04:14;23.13;;;12.38;;
43606;SDS011;29197;44.788;10.366;2022-10-31T19:07:06;28.45;;;12.65;;
43606;SDS011;29197;44.788;10.366;2022-10-31T19:09:55;29.73;;;14.63;;
43606;SDS011;29197;44.788;10.366;2022-10-31T19:12:44;21.45;;;11.35;;
43606;SDS011;29197;44.788;10.366;2022-10-31T19:15:33;23.17;;;12.50;;
43606;SDS011;29197;44.788;10.366;2022-10-31T19:18:23;22.33;;;11.70;;
43606;SDS011;29197;44.788;10.366;2022-10-31T19:21:13;25.80;;;12.60;;
43606;SDS011;29197;44.788;10.366;2022-10-31T19:24:05;24.30;;;13.50;;
43606;SDS011;29197;44.788;10.366;2022-10-31T19:26:56;22.38;;;12.27;;
43606;SDS011;29197;44.788;10.366;2022-10-31T19:29:46;18.75;;;10.70;;
43606;SDS011;29197;44.788;10.366;2022-10-31T19:32:35;20.45;;;10.15;;
43606;SDS011;29197;44.788;10.366;2022-10-31T19:35:25;23.30;;;12.95;;
43606;SDS011;29197;44.788;10.366;2022-10-31T19:38:14;19.50;;;11.38;;
43606;SDS011;29197;44.788;10.366;2022-10-31T19:41:05;29.35;;;13.57;;
43606;SDS011;29197;44.788;10.366;2022-10-31T19:43:57;24.95;;;12.40;;
43606;SDS011;29197;44.788;10.366;2022-10-31T19:46:47;23.33;;;11.90;;
43606;SDS011;29197;44.788;10.366;2022-10-31T19:49:39;19.08;;;10.90;;
43606;SDS011;29197;44.788;10.366;2022-10-31T19:52:31;21.98;;;11.82;;
43606;SDS011;29197;44.788;10.366;2022-10-31T19:55:21;17.02;;;11.02;;
43606;SDS011;29197;44.788;10.366;2022-10-31T19:58:12;20.27;;;10.13;;
43606;SDS011;29197;44.788;10.366;2022-10-31T20:01:04;22.45;;;10.63;;
43606;SDS011;29197;44.788;10.366;2022-10-31T20:03:55;24.55;;;12.23;;
43606;SDS011;29197;44.788;10.366;2022-10-31T20:06:44;21.88;;;10.77;;
43606;SDS011;29197;44.788;10.366;2022-10-31T20:09:33;21.08;;;10.63;;
43606;SDS011;29197;44.788;10.366;2022-10-31T20:12:22;18.98;;;11.40;;
43606;SDS011;29197;44.788;10.366;2022-10-31T20:15:13;18.75;;;10.20;;
43606;SDS011;29197;44.788;10.366;2022-10-31T20:18:03;19.65;;;10.60;;
43606;SDS011;29197;44.788;10.366;2022-10-31T20:20:52;19.30;;;9.20;;
43606;SDS011;29197;44.788;10.366;2022-10-31T20:23:45;18.17;;;9.82;;
43606;SDS011;29197;44.788;10.366;2022-10-31T20:26:34;19.40;;;9.70;;
43606;SDS011;29197;44.788;10.366;2022-10-31T20:29:25;19.02;;;10.35;;
43606;SDS011;29197;44.788;10.366;2022-10-31T20:32:16;17.02;;;10.18;;
43606;SDS011;29197;44.788;10.366;2022-10-31T20:35:07;18.63;;;9.98;;
43606;SDS011;29197;44.788;10.366;2022-10-31T20:37:56;20.23;;;10.25;;
43606;SDS011;29197;44.788;10.366;2022-10-31T20:40:46;20.05;;;10.32;;
43606;SDS011;29197;44.788;10.366;2022-10-31T20:43:36;14.70;;;8.02;;
43606;SDS011;29197;44.788;10.366;2022-10-31T20:46:26;13.48;;;7.82;;
43606;SDS011;29197;44.788;10.366;2022-10-31T20:49:18;18.35;;;8.50;;
43606;SDS011;29197;44.788;10.366;2022-10-31T20:52:07;14.30;;;8.50;;
43606;SDS011;29197;44.788;10.366;2022-10-31T20:54:56;14.98;;;7.65;;
43606;SDS011;29197;44.788;10.366;2022-10-31T20:57:46;15.20;;;8.65;;
43606;SDS011;29197;44.788;10.366;2022-10-31T21:00:35;15.13;;;8.35;;
43606;SDS011;29197;44.788;10.366;2022-10-31T21:03:25;14.95;;;7.95;;
43606;SDS011;29197;44.788;10.366;2022-10-31T21:06:16;15.38;;;7.60;;
43606;SDS011;29197;44.788;10.366;2022-10-31T21:09:07;12.52;;;6.85;;
43606;SDS011;29197;44.788;10.366;2022-10-31T21:11:56;13.60;;;7.30;;
43606;SDS011;29197;44.788;10.366;2022-10-31T21:14:46;11.95;;;6.85;;
43606;SDS011;29197;44.788;10.366;2022-10-31T21:17:35;11.25;;;7.50;;
43606;SDS011;29197;44.788;10.366;2022-10-31T21:20:24;16.63;;;8.75;;
43606;SDS011;29197;44.788;10.366;2022-10-31T21:23:15;12.40;;;7.18;;
43606;SDS011;29197;44.788;10.366;2022-10-31T21:26:05;10.98;;;6.65;;
43606;SDS011;29197;44.788;10.366;2022-10-31T21:28:56;13.88;;;6.85;;
43606;SDS011;29197;44.788;10.366;2022-10-31T21:31:47;15.63;;;8.35;;
43606;SDS011;29197;44.788;10.366;2022-10-31T21:34:36;12.38;;;7.40;;
43606;SDS011;29197;44.788;10.366;2022-10-31T21:37:25;11.20;;;6.45;;
43606;SDS011;29197;44.788;10.366;2022-10-31T21:40:16;12.80;;;6.28;;
43606;SDS011;29197;44.788;10.366;2022-10-31T21:43:05;12.55;;;6.28;;
43606;SDS011;29197;44.788;10.366;2022-10-31T21:45:54;11.65;;;5.63;;
43606;SDS011;29197;44.788;10.366;2022-10-31T21:48:44;8.05;;;5.07;;
43606;SDS011;29197;44.788;10.366;2022-10-31T21:51:33;7.80;;;5.35;;
43606;SDS011;29197;44.788;10.366;2022-10-31T21:54:23;9.93;;;5.50;;
43606;SDS011;29197;44.788;10.366;2022-10-31T21:57:17;14.00;;;6.63;;
43606;SDS011;29197;44.788;10.366;2022-10-31T22:00:08;13.15;;;5.63;;
43606;SDS011;29197;44.788;10.366;2022-10-31T22:02:58;14.52;;;6.07;;
43606;SDS011;29197;44.788;10.366;2022-10-31T22:05:48;12.65;;;6.63;;
43606;SDS011;29197;44.788;10.366;2022-10-31T22:08:42;13.35;;;6.20;;
43606;SDS011;29197;44.788;10.366;2022-10-31T22:11:32;8.25;;;5.00;;
43606;SDS011;29197;44.788;10.366;2022-10-31T22:14:23;8.30;;;4.80;;
43606;SDS011;29197;44.788;10.366;2022-10-31T22:17:12;9.68;;;5.10;;
43606;SDS011;29197;44.788;10.366;2022-10-31T22:20:01;10.23;;;5.50;;
43606;SDS011;29197;44.788;10.366;2022-10-31T22:22:51;13.20;;;5.57;;
43606;SDS011;29197;44.788;10.366;2022-10-31T22:25:41;10.38;;;5.60;;
43606;SDS011;29197;44.788;10.366;2022-10-31T22:28:30;10.25;;;5.22;;
43606;SDS011;29197;44.788;10.366;2022-10-31T22:31:22;10.38;;;4.97;;
43606;SDS011;29197;44.788;10.366;2022-10-31T22:34:12;8.38;;;5.03;;
43606;SDS011;29197;44.788;10.366;2022-10-31T22:37:02;8.15;;;4.57;;
43606;SDS011;29197;44.788;10.366;2022-10-31T22:39:51;10.23;;;5.32;;
43606;SDS011;29197;44.788;10.366;2022-10-31T22:42:41;9.13;;;4.95;;
43606;SDS011;29197;44.788;10.366;2022-10-31T22:45:30;12.05;;;4.90;;
43606;SDS011;29197;44.788;10.366;2022-10-31T22:48:21;11.32;;;4.80;;
43606;SDS011;29197;44.788;10.366;2022-10-31T22:51:11;7.00;;;4.28;;
43606;SDS011;29197;44.788;10.366;2022-10-31T22:54:01;7.78;;;5.13;;
43606;SDS011;29197;44.788;10.366;2022-10-31T22:56:51;11.60;;;5.15;;
43606;SDS011;29197;44.788;10.366;2022-10-31T22:59:40;9.25;;;5.05;;
43606;SDS011;29197;44.788;10.366;2022-10-31T23:02:30;9.13;;;4.90;;
43606;SDS011;29197;44.788;10.366;2022-10-31T23:05:20;8.02;;;4.15;;
43606;SDS011;29197;44.788;10.366;2022-10-31T23:08:10;9.70;;;4.93;;
43606;SDS011;29197;44.788;10.366;2022-10-31T23:11:00;6.63;;;4.05;;
43606;SDS011;29197;44.788;10.366;2022-10-31T23:13:50;14.52;;;5.63;;
43606;SDS011;29197;44.788;10.366;2022-10-31T23:17:00;9.02;;;4.68;;
43606;SDS011;29197;44.788;10.366;2022-10-31T23:19:49;5.78;;;3.90;;
43606;SDS011;29197;44.788;10.366;2022-10-31T23:22:40;8.98;;;3.83;;
